Flight Track Log - Related Links

Times and Time Zones

All times are in EDT time to prevent confusion due to time zone crossing. See the N1113X flight status page for this flight to view local times or setup timezone preferences in your user account.

Time Position Orientation Groundspeed Altitude Reporting Facility
EDT Latitude Longitude Course Direction KTS MPH feet Rate Location/Type
Sat 08:43:58 PM 42.7833 -71.5000 124° Southeast 112 129 800  Level KA90
Sat 08:45:04 PM 42.7500 -71.4333 124° Southeast 158 182 1,800 990 Climbing KA90
Sat 08:45:41 PM 42.7419 -71.4478 233° Southwest 134 154 2,500 990 Climbing Boston Center
Sat 08:46:41 PM 42.7403 -71.4875 267° West 71 82 3,400 942 Climbing Boston Center
Sat 08:47:42 PM 42.7367 -71.5383 264° West 120 138 4,400 908 Climbing Boston Center
Sat 08:48:40 PM 42.7369 -71.5864 270° West 135 155 5,200 814 Climbing Boston Center
Sat 08:49:40 PM 42.7353 -71.6431 268° West 141 162 6,000 397 Climbing Boston Center
Sat 08:50:41 PM 42.7336 -71.6967 268° West 148 170 6,000  Level Boston Center
Sat 08:51:41 PM 42.7319 -71.7675 268° West 168 193 6,000  Level Boston Center
Sat 08:52:41 PM 42.7322 -71.8239 270° West 168 193 6,000  Level Boston Center
Sat 08:53:42 PM 42.6992 -71.8722 227° Southwest 162 186 6,000  Level Boston Center
Sat 08:54:16 PM 42.6700 -71.8922 207° Southwest 179 206 6,000  Level Boston Center
Sat 08:55:35 PM 42.6119 -71.9267 204° Southwest 178 205 6,000  Level Boston Center
Sat 08:56:35 PM 42.5703 -71.9664 215° Southwest 183 211 6,000  Level Boston Center
Sat 08:57:36 PM 42.5289 -72.0061 215° Southwest 183 211 6,000  Level Boston Center
Sat 08:58:36 PM 42.4872 -72.0458 215° Southwest 180 207 6,000  Level Boston Center
Sat 08:59:37 PM 42.4478 -72.0856 217° Southwest 175 201 6,000  Level Boston Center
Sat 09:00:38 PM 42.4083 -72.1225 215° Southwest 181 208 6,000  Level Boston Center
Sat 09:01:37 PM 42.3667 -72.1647 217° Southwest 177 204 6,000  Level Boston Center
Sat 09:02:38 PM 42.3272 -72.2014 215° Southwest 176 203 6,000  Level Boston Center
Sat 09:03:39 PM 42.2856 -72.2408 215° Southwest 179 206 6,000  Level Boston Center
Sat 09:04:41 PM 42.2461 -72.2803 217° Southwest 181 208 6,000  Level Boston Center
Sat 09:04:41 PM 42.2461 -72.2803 217° Southwest 177 204 6,000  Level Boston Center
Sat 09:05:40 PM 42.2064 -72.3194 216° Southwest 178 205 6,000  Level Boston Center
Sat 09:06:41 PM 42.1692 -72.3561 216° Southwest 176 203 6,000  Level Boston Center
Sat 09:07:40 PM 42.1317 -72.3925 216° Southwest 176 203 6,000  Level Boston Center
Sat 09:08:41 PM 42.0878 -72.4344 215° Southwest 176 203 6,000  Level Boston Center
Sat 09:09:43 PM 42.0419 -72.4764 214° Southwest 175 201 6,000  Level Boston Center
Sat 09:10:44 PM 42.0022 -72.5156 216° Southwest 182 209 6,000  Level Boston Center
Sat 09:11:44 PM 41.9628 -72.5544 216° Southwest 181 208 6,000  Level Boston Center
Sat 09:12:44 PM 41.9208 -72.5964 217° Southwest 183 211 6,000  Level Boston Center
Sat 09:13:44 PM 41.8772 -72.6408 217° Southwest 186 214 6,000  Level Boston Center
Sat 09:14:48 PM 41.8333 -72.6825 215° Southwest 185 213 6,000  Level Boston Center
Sat 09:15:48 PM 41.7956 -72.7186 215° Southwest 178 205 6,000  Level Boston Center
Sat 09:16:49 PM 41.7497 -72.7600 214° Southwest 194 223 6,000  Level Boston Center
Sat 09:18:46 PM 41.6667 -72.8333 213° Southwest 187 215 6,000  Level New York TRACON
Sat 09:19:46 PM 41.6333 -72.8833 228° Southwest 183 211 6,000  Level New York TRACON
Sat 09:20:46 PM 41.5833 -72.9167 207° Southwest 185 213 6,000  Level New York TRACON
Sat 09:21:40 PM 41.5500 -72.9500 217° Southwest 181 208 6,000  Level New York TRACON
Sat 09:22:40 PM 41.5000 -72.9833 207° Southwest 187 215 6,000  Level New York TRACON
Sat 09:23:40 PM 41.4667 -73.0333 228° Southwest 183 211 6,000  Level New York TRACON
Sat 09:24:40 PM 41.4500 -73.1000 252° West 175 201 6,000  Level New York TRACON
Sat 09:25:40 PM 41.4333 -73.1500 246° West 179 206 6,000  Level New York TRACON
Sat 09:26:40 PM 41.4167 -73.2167 252° West 178 205 6,000  Level New York TRACON
Sat 09:27:40 PM 41.3833 -73.2833 236° Southwest 180 207 6,000  Level New York TRACON
Sat 09:28:40 PM 41.3667 -73.3333 246° West 181 208 6,000  Level New York TRACON
Sat 09:29:46 PM 41.3500 -73.4000 252° West 183 211 6,000  Level New York TRACON
Sat 09:30:40 PM 41.3167 -73.4500 228° Southwest 187 215 6,000  Level New York TRACON
Sat 09:31:40 PM 41.3000 -73.5167 252° West 184 212 6,000  Level New York TRACON
Sat 09:32:40 PM 41.2833 -73.5833 252° West 179 206 6,000  Level New York TRACON
Sat 09:33:40 PM 41.2667 -73.6500 252° West 178 205 6,000  Level New York TRACON
Sat 09:34:40 PM 41.2667 -73.7167 270° West 180 207 6,000 -200 Level New York TRACON
Sat 09:35:40 PM 41.2500 -73.7833 252° West 183 211 5,600 -450 Descending New York TRACON
Sat 09:36:40 PM 41.2333 -73.8500 252° West 191 220 5,100 -500 Descending New York TRACON
Sat 09:37:40 PM 41.2167 -73.9167 252° West 188 216 4,600 -500 Descending New York TRACON
Sat 09:38:40 PM 41.2167 -73.9667 270° West 189 217 4,100 -300 Descending New York TRACON
Sat 09:39:40 PM 41.2000 -74.0333 252° West 175 201 4,000 -50 Descending New York TRACON
Sat 09:40:40 PM 41.1833 -74.1000 252° West 171 197 4,000  Level New York TRACON
Sat 09:41:40 PM 41.1333 -74.1333 207° Southwest 173 199 4,000  Level New York TRACON
Sat 09:42:40 PM 41.1000 -74.1667 217° Southwest 172 198 4,000  Level New York TRACON
Sat 09:43:40 PM 41.0500 -74.1833 194° South 174 200 4,000  Level New York TRACON
Sat 09:44:40 PM 41.0167 -74.2167 217° Southwest 175 201 4,000 -350 Level New York TRACON
Sat 09:45:40 PM 40.9667 -74.2500 207° Southwest 190 219 3,300 -550 Descending New York TRACON
Sat 09:46:40 PM 40.9333 -74.2833 217° Southwest 177 204 2,900 -550 Descending New York TRACON
Sat 09:47:40 PM 40.9000 -74.3167 217° Southwest 149 171 2,200 -600 Descending New York TRACON
Sat 09:48:40 PM 40.8667 -74.3500 217° Southwest 101 116 1,700 -500 Descending New York TRACON
Sat 09:49:40 PM 40.8500 -74.3667 217° Southwest 114 131 1,200 -500 Descending New York TRACON
Sat 09:51:00 PM 40.7852 -74.3991 201° Southwest  Level FlightAware Approximate
Sat 09:58:00 PM 40.7833 -74.4000 214° Southwest  Level FlightAware Approximate
Sat 09:59:00 PM 40.7993 -74.4149 214° Southwest  Level Estimated
Sat 10:00:00 PM 40.7993 -74.4149 214° Southwest  Level Estimated

Login

Don't have an account? Register now (free) for customized features, flight alerts, and more!